createdAt,value
2022-08-14T00:02:31.274Z,96196.25
2022-08-14T00:05:00.950Z,96185.81
2022-08-14T00:07:29.949Z,96182.97
2022-08-14T00:10:49.207Z,96175.84
2022-08-14T00:12:56.760Z,96184.31
2022-08-14T00:15:37.718Z,96173.09
2022-08-14T00:18:30.530Z,96181.66
2022-08-14T00:21:10.802Z,96173.34
2022-08-14T00:23:41.429Z,96167.03
2022-08-14T00:26:22.054Z,96166.72
2022-08-14T00:28:52.667Z,96166.84
2022-08-14T00:31:34.832Z,96164.66
2022-08-14T00:34:37.870Z,96161.00
2022-08-14T00:37:01.921Z,96165.59
2022-08-14T00:39:31.838Z,96158.59
2022-08-14T00:42:02.212Z,96169.72
2022-08-14T00:44:33.291Z,96163.09
2022-08-14T00:47:03.870Z,96161.81
2022-08-14T00:49:38.065Z,96160.53
2022-08-14T00:52:17.781Z,96163.28
2022-08-14T00:54:52.909Z,96158.91
2022-08-14T00:57:33.582Z,96153.91
2022-08-14T01:00:08.379Z,96159.22
2022-08-14T01:02:57.001Z,96158.72
2022-08-14T01:05:41.830Z,96161.03
2022-08-14T01:08:58.296Z,96150.03
2022-08-14T01:11:10.588Z,96150.66
2022-08-14T01:13:43.072Z,96134.06
2022-08-14T01:16:15.102Z,96147.81
2022-08-14T01:19:02.512Z,96128.81
2022-08-14T01:21:38.756Z,96143.84
2022-08-14T01:24:24.743Z,96144.75
2022-08-14T01:27:01.600Z,96139.78
2022-08-14T01:29:58.176Z,96142.25
2022-08-14T01:32:23.091Z,96138.78
2022-08-14T01:35:18.445Z,96133.91
2022-08-14T01:37:56.543Z,96129.00
2022-08-14T01:40:36.892Z,96135.94
2022-08-14T01:43:18.608Z,96142.16
2022-08-14T01:45:57.818Z,96133.09
2022-08-14T01:48:36.978Z,96123.81
2022-08-14T01:51:18.972Z,96127.78
2022-08-14T01:53:55.049Z,96129.31
2022-08-14T01:56:37.399Z,96127.28
2022-08-14T01:59:10.226Z,96111.03
2022-08-14T02:01:58.209Z,96108.91
2022-08-14T02:04:54.988Z,96111.09
2022-08-14T02:07:27.212Z,96097.66
2022-08-14T02:10:15.870Z,96101.81
2022-08-14T02:12:54.054Z,96090.53
2022-08-14T02:15:26.568Z,96099.19
2022-08-14T02:17:55.334Z,96102.94
2022-08-14T02:20:24.824Z,96091.44
2022-08-14T02:22:54.706Z,96093.44
2022-08-14T02:25:29.869Z,96088.88
2022-08-14T02:28:24.523Z,96084.50
2022-08-14T02:30:52.411Z,96090.63
2022-08-14T02:33:23.312Z,96083.81
2022-08-14T02:36:05.097Z,96074.75
2022-08-14T02:38:42.089Z,96082.66
2022-08-14T02:41:15.240Z,96084.38
2022-08-14T02:43:46.464Z,96081.13
2022-08-14T02:46:20.436Z,96081.03
2022-08-14T02:49:04.033Z,96078.69
2022-08-14T02:51:36.960Z,96084.44
2022-08-14T02:54:07.171Z,96069.56
2022-08-14T02:57:39.203Z,96062.84
2022-08-14T02:59:33.736Z,96064.78
2022-08-14T03:02:04.677Z,96060.19
2022-08-14T03:04:34.606Z,96064.19
2022-08-14T03:07:07.903Z,96058.16
2022-08-14T03:10:26.251Z,96055.44
2022-08-14T03:12:32.358Z,96047.34
2022-08-14T03:15:14.195Z,96051.44
2022-08-14T03:17:56.863Z,96052.25
2022-08-14T03:20:28.295Z,96047.75
2022-08-14T03:23:03.348Z,96043.56
2022-08-14T03:25:34.194Z,96040.56
2022-08-14T03:28:14.697Z,96034.63
2022-08-14T03:31:00.195Z,96017.91
2022-08-14T03:33:38.035Z,96031.75
2022-08-14T03:37:52.101Z,96039.75
2022-08-14T03:39:15.269Z,96031.81
2022-08-14T03:41:53.754Z,96034.34
2022-08-14T03:45:26.800Z,96020.53
2022-08-14T03:47:15.333Z,96034.06
2022-08-14T03:49:50.079Z,96031.31
2022-08-14T03:52:39.142Z,96036.28
2022-08-14T03:55:09.911Z,96034.66
2022-08-14T03:57:41.648Z,96034.66
2022-08-14T04:00:40.534Z,96033.25
2022-08-14T04:03:06.506Z,96032.94
2022-08-14T04:05:42.833Z,96024.72
2022-08-14T04:08:29.710Z,96015.38
2022-08-14T04:11:00.968Z,96023.84
2022-08-14T04:13:33.814Z,96017.09
2022-08-14T04:16:06.981Z,96019.41
2022-08-14T04:18:43.889Z,96010.44
2022-08-14T04:21:14.920Z,96014.38
2022-08-14T04:23:48.994Z,96006.75
2022-08-14T04:26:42.579Z,95998.31
2022-08-14T04:29:16.145Z,96004.84
2022-08-14T04:33:01.502Z,96002.91
2022-08-14T04:34:41.969Z,95995.56
2022-08-14T04:37:28.635Z,95997.00
2022-08-14T04:40:15.250Z,96000.09
2022-08-14T04:43:03.002Z,95998.38
2022-08-14T04:45:40.632Z,95998.38
2022-08-14T04:48:31.623Z,96008.44
2022-08-14T04:51:07.824Z,95999.50
2022-08-14T04:53:42.975Z,96007.19
2022-08-14T04:56:31.119Z,95992.38
2022-08-14T04:59:10.005Z,95988.53
2022-08-14T05:01:44.811Z,95988.41
2022-08-14T05:04:20.792Z,95985.22
2022-08-14T05:06:54.148Z,95973.44
2022-08-14T05:09:28.798Z,95989.53
2022-08-14T05:12:04.218Z,95983.69
2022-08-14T05:14:54.771Z,95988.59
2022-08-14T05:17:32.157Z,95978.44
2022-08-14T05:21:58.349Z,95976.50
2022-08-14T05:23:04.125Z,95969.09
2022-08-14T05:25:33.710Z,95980.06
2022-08-14T05:28:12.457Z,95979.97
2022-08-14T05:30:47.008Z,95981.00
2022-08-14T05:33:16.235Z,95971.06
2022-08-14T05:35:48.451Z,95971.28
2022-08-14T05:38:30.870Z,95971.06
2022-08-14T05:41:02.356Z,95971.44
2022-08-14T05:43:41.365Z,95971.03
2022-08-14T05:46:15.247Z,95972.66
2022-08-14T05:48:45.397Z,95971.91
2022-08-14T05:51:15.767Z,95966.75
2022-08-14T05:54:00.337Z,95970.91
2022-08-14T05:56:37.152Z,95967.25
2022-08-14T05:59:05.863Z,95963.84
2022-08-14T06:01:36.738Z,95968.03
2022-08-14T06:04:05.780Z,95972.25
2022-08-14T06:06:38.465Z,95964.34
2022-08-14T06:09:09.876Z,95966.91
2022-08-14T06:11:39.031Z,95977.28
2022-08-14T06:14:20.965Z,95970.78
2022-08-14T06:16:53.471Z,95988.66
2022-08-14T06:19:23.477Z,95987.03
2022-08-14T06:21:59.217Z,95993.22
2022-08-14T06:24:30.682Z,95999.97
2022-08-14T06:27:06.418Z,95991.22
2022-08-14T06:29:40.500Z,95995.56
2022-08-14T06:32:38.010Z,95993.38
2022-08-14T06:35:02.762Z,96004.44
2022-08-14T06:37:43.843Z,95998.81
2022-08-14T06:40:16.612Z,96006.34
2022-08-14T06:42:57.164Z,96007.66
2022-08-14T06:45:30.319Z,96005.09
2022-08-14T06:47:59.187Z,96005.78
2022-08-14T06:50:30.415Z,96003.34
2022-08-14T06:53:00.512Z,95994.47
2022-08-14T06:55:29.654Z,96000.50
2022-08-14T06:57:58.366Z,96005.06
2022-08-14T07:00:30.469Z,96006.56
2022-08-14T07:03:19.209Z,96010.50
2022-08-14T07:05:55.819Z,95996.16
2022-08-14T07:08:32.112Z,96002.69
2022-08-14T07:11:04.333Z,96002.94
2022-08-14T07:13:34.630Z,95997.69
2022-08-14T07:16:05.899Z,95993.88
2022-08-14T07:18:37.143Z,95986.16
2022-08-14T07:21:10.238Z,95979.09
2022-08-14T07:23:44.107Z,95988.22
2022-08-14T07:26:13.586Z,95992.47
2022-08-14T07:28:44.170Z,95997.34
2022-08-14T07:31:13.892Z,96001.28
2022-08-14T07:33:50.814Z,95993.44
2022-08-14T07:36:26.942Z,95992.03
2022-08-14T07:39:00.960Z,95991.56
2022-08-14T07:41:35.593Z,95983.66
2022-08-14T07:44:32.935Z,95985.78
2022-08-14T07:46:54.733Z,95986.28
2022-08-14T07:49:24.477Z,95992.63
2022-08-14T07:51:54.100Z,95992.34
2022-08-14T07:54:29.976Z,95990.41
2022-08-14T07:57:00.757Z,95986.19
2022-08-14T07:59:42.305Z,95982.31
2022-08-14T08:02:19.116Z,95983.94
2022-08-14T08:04:54.205Z,95988.81
2022-08-14T08:07:24.066Z,95979.72
2022-08-14T08:09:57.816Z,95980.03
2022-08-14T08:12:30.854Z,95978.53
2022-08-14T08:15:07.335Z,95977.06
2022-08-14T08:17:42.524Z,95962.47
2022-08-14T08:20:27.396Z,95976.59
2022-08-14T08:23:00.459Z,95975.91
2022-08-14T08:25:39.813Z,95973.41
2022-08-14T08:28:22.145Z,95984.44
2022-08-14T08:30:56.704Z,95961.00
2022-08-14T08:33:32.262Z,95965.31
2022-08-14T08:36:13.043Z,95952.13
2022-08-14T08:39:17.145Z,95967.81
2022-08-14T08:41:45.488Z,95973.28
2022-08-14T08:44:33.078Z,95980.19
2022-08-14T08:47:06.126Z,95965.44
2022-08-14T08:49:52.905Z,95969.41
2022-08-14T08:52:31.553Z,95964.34
2022-08-14T08:55:04.710Z,95966.25
2022-08-14T08:57:37.946Z,95950.91
2022-08-14T09:00:25.230Z,95952.59
2022-08-14T09:02:57.615Z,95951.13
2022-08-14T09:05:27.357Z,95959.00
2022-08-14T09:07:56.825Z,95959.22
2022-08-14T09:10:27.236Z,95949.06
2022-08-14T09:12:58.814Z,95944.25
2022-08-14T09:15:36.817Z,95945.13
2022-08-14T09:18:14.012Z,95954.25
2022-08-14T09:20:49.869Z,95958.34
2022-08-14T09:23:20.353Z,95956.25
2022-08-14T09:26:05.003Z,95959.03
2022-08-14T09:28:51.319Z,95951.41
2022-08-14T09:31:20.250Z,95963.19
2022-08-14T09:34:19.691Z,95961.22
2022-08-14T09:37:00.253Z,95955.16
2022-08-14T09:39:47.826Z,95964.91
2022-08-14T09:42:33.273Z,95950.88
2022-08-14T09:45:15.565Z,95938.94
2022-08-14T09:47:49.094Z,95933.97
2022-08-14T09:50:26.011Z,95934.94
2022-08-14T09:53:03.733Z,95927.03
2022-08-14T09:55:42.413Z,95921.75
2022-08-14T09:58:19.301Z,95924.72
2022-08-14T10:00:52.776Z,95930.06
2022-08-14T10:03:33.400Z,95921.06
2022-08-14T10:06:08.792Z,95918.25
2022-08-14T10:08:50.713Z,95920.09
2022-08-14T10:11:23.845Z,95911.09
2022-08-14T10:13:55.998Z,95914.00
2022-08-14T10:16:33.277Z,95897.47
2022-08-14T10:19:05.651Z,95910.78
2022-08-14T10:21:38.764Z,95909.31
2022-08-14T10:24:36.774Z,95912.44
2022-08-14T10:27:17.238Z,95903.75
2022-08-14T10:29:50.184Z,95890.94
2022-08-14T10:32:28.848Z,95899.19
2022-08-14T10:35:13.340Z,95900.50
2022-08-14T10:37:48.757Z,95902.69
2022-08-14T10:40:37.554Z,95890.63
2022-08-14T10:43:22.624Z,95891.16
2022-08-14T10:46:03.926Z,95880.97
2022-08-14T10:48:58.446Z,95895.97
2022-08-14T10:51:30.088Z,95887.00
2022-08-14T10:54:26.106Z,95880.81
2022-08-14T10:56:59.744Z,95885.81
2022-08-14T10:59:30.935Z,95887.69
2022-08-14T11:02:04.378Z,95879.50
2022-08-14T11:04:36.088Z,95878.13
2022-08-14T11:07:19.281Z,95896.50
2022-08-14T11:09:56.013Z,95883.56
2022-08-14T11:12:34.133Z,95877.72
2022-08-14T11:15:06.411Z,95882.28
2022-08-14T11:17:37.520Z,95891.94
2022-08-14T11:20:14.150Z,95875.88
2022-08-14T11:22:56.458Z,95871.78
2022-08-14T11:25:43.350Z,95873.72
2022-08-14T11:28:19.185Z,95871.34
2022-08-14T11:30:53.484Z,95871.78
2022-08-14T11:33:24.760Z,95866.16
2022-08-14T11:35:59.446Z,95863.81
2022-08-14T11:38:29.628Z,95870.22
2022-08-14T11:41:00.376Z,95857.13
2022-08-14T11:43:30.568Z,95858.75
2022-08-14T11:46:03.540Z,95853.47
2022-08-14T11:49:02.201Z,95854.09
2022-08-14T11:51:53.593Z,95832.47
2022-08-14T11:54:34.294Z,95840.16
2022-08-14T11:57:05.660Z,95828.91
2022-08-14T11:59:34.336Z,95826.03
2022-08-14T12:03:00.730Z,95823.41
2022-08-14T12:05:09.318Z,95822.59
2022-08-14T12:07:50.700Z,95810.06
2022-08-14T12:10:26.831Z,95810.97
2022-08-14T12:13:17.506Z,95804.91
2022-08-14T12:15:51.544Z,95807.34
2022-08-14T12:18:32.401Z,95805.72
2022-08-14T12:21:15.724Z,95799.28
2022-08-14T12:24:01.890Z,95803.97
2022-08-14T12:26:39.651Z,95809.94
2022-08-14T12:29:13.208Z,95790.06
2022-08-14T12:31:44.852Z,95788.41
2022-08-14T12:34:20.067Z,95781.94
2022-08-14T12:36:50.221Z,95775.59
2022-08-14T12:39:22.965Z,95770.94
2022-08-14T12:41:57.477Z,95760.13
2022-08-14T12:44:34.943Z,95760.47
2022-08-14T12:47:06.277Z,95766.63
2022-08-14T12:49:35.591Z,95755.00
2022-08-14T12:52:11.875Z,95760.25
2022-08-14T12:54:57.513Z,95757.25
2022-08-14T12:57:38.124Z,95750.31
2022-08-14T13:00:22.729Z,95741.69
2022-08-14T13:02:55.553Z,95734.34
2022-08-14T13:05:27.756Z,95746.56
2022-08-14T13:07:57.324Z,95740.91
2022-08-14T13:10:46.571Z,95737.13
2022-08-14T13:13:18.122Z,95724.00
2022-08-14T13:15:56.187Z,95724.59
2022-08-14T13:18:27.785Z,95723.38
2022-08-14T13:21:02.306Z,95716.41
2022-08-14T13:23:36.048Z,95712.72
2022-08-14T13:26:08.421Z,95709.53
2022-08-14T13:29:01.498Z,95702.72
2022-08-14T13:31:34.566Z,95708.75
2022-08-14T13:34:04.508Z,95706.84
2022-08-14T13:36:54.940Z,95695.19
2022-08-14T13:39:24.748Z,95696.66
2022-08-14T13:41:55.626Z,95681.69
2022-08-14T13:44:28.917Z,95683.06
2022-08-14T13:46:58.570Z,95678.22
2022-08-14T13:49:29.217Z,95654.03
2022-08-14T13:51:59.799Z,95667.28
2022-08-14T13:54:32.747Z,95669.81
2022-08-14T13:57:03.764Z,95669.94
2022-08-14T13:59:37.882Z,95658.50
2022-08-14T14:02:09.113Z,95649.94
2022-08-14T14:04:40.949Z,95657.91
2022-08-14T14:07:13.553Z,95643.72
2022-08-14T14:09:52.652Z,95638.94
2022-08-14T14:12:37.637Z,95629.38
2022-08-14T14:15:14.115Z,95625.47
2022-08-14T14:17:48.200Z,95631.44
2022-08-14T14:20:35.702Z,95624.16
2022-08-14T14:23:10.506Z,95630.47
2022-08-14T14:25:47.967Z,95632.50
2022-08-14T14:28:24.531Z,95635.56
2022-08-14T14:30:57.219Z,95637.00
2022-08-14T14:33:49.579Z,95634.75
2022-08-14T14:36:26.555Z,95629.59
2022-08-14T14:38:57.489Z,95631.09
2022-08-14T14:41:37.928Z,95618.78
2022-08-14T14:44:15.634Z,95628.09
2022-08-14T14:46:53.258Z,95627.84
2022-08-14T14:49:31.864Z,95634.53
2022-08-14T14:52:17.263Z,95627.75
2022-08-14T14:54:52.501Z,95620.44
2022-08-14T14:57:21.608Z,95618.03
2022-08-14T14:59:51.743Z,95613.81
2022-08-14T15:02:32.165Z,95617.41
2022-08-14T15:05:02.841Z,95615.06
2022-08-14T15:07:32.027Z,95624.25
2022-08-14T15:10:02.259Z,95617.09
2022-08-14T15:12:55.218Z,95618.94
2022-08-14T15:15:24.482Z,95609.25
2022-08-14T15:17:54.825Z,95611.00
2022-08-14T15:20:30.336Z,95605.97
2022-08-14T15:23:12.345Z,95604.41
2022-08-14T15:25:42.151Z,95603.00
2022-08-14T15:28:13.174Z,95593.06
2022-08-14T15:30:58.913Z,95602.63
2022-08-14T15:34:13.312Z,95597.50
2022-08-14T15:36:31.761Z,95596.84
2022-08-14T15:39:00.418Z,95590.78
2022-08-14T15:41:41.197Z,95590.13
2022-08-14T15:44:18.961Z,95591.50
2022-08-14T15:46:58.288Z,95583.69
2022-08-14T15:49:34.635Z,95582.56
2022-08-14T15:52:05.215Z,95582.44
2022-08-14T15:54:35.031Z,95576.06
2022-08-14T15:57:08.489Z,95576.56
2022-08-14T15:59:55.409Z,95567.47
2022-08-14T16:02:28.174Z,95570.28
2022-08-14T16:04:56.998Z,95559.63
2022-08-14T16:07:27.278Z,95558.31
2022-08-14T16:10:27.344Z,95561.91
2022-08-14T16:12:47.627Z,95545.22
2022-08-14T16:15:17.908Z,95548.31
2022-08-14T16:17:49.935Z,95552.81
2022-08-14T16:20:42.079Z,95551.22
2022-08-14T16:23:11.585Z,95547.31
2022-08-14T16:25:43.555Z,95538.81
2022-08-14T16:28:27.046Z,95541.72
2022-08-14T16:30:56.299Z,95542.28
2022-08-14T16:33:56.604Z,95534.59
2022-08-14T16:36:30.172Z,95533.09
2022-08-14T16:39:01.857Z,95530.72
2022-08-14T16:41:31.211Z,95529.91
2022-08-14T16:44:02.704Z,95528.41
2022-08-14T16:46:38.360Z,95522.50
2022-08-14T16:49:16.110Z,95525.94
2022-08-14T16:51:52.687Z,95524.88
2022-08-14T16:54:35.052Z,95522.06
2022-08-14T16:57:22.863Z,95521.34
2022-08-14T16:59:57.816Z,95523.31
2022-08-14T17:02:39.676Z,95520.91
2022-08-14T17:05:21.550Z,95517.00
2022-08-14T17:08:28.585Z,95514.16
2022-08-14T17:11:10.836Z,95519.63
2022-08-14T17:13:58.007Z,95517.69
2022-08-14T17:16:35.606Z,95516.19
2022-08-14T17:19:05.655Z,95507.63
2022-08-14T17:21:40.995Z,95513.78
2022-08-14T17:24:56.885Z,95513.41
2022-08-14T17:27:04.279Z,95509.56
2022-08-14T17:29:44.987Z,95509.63
2022-08-14T17:32:30.067Z,95508.56
2022-08-14T17:35:16.369Z,95517.41
2022-08-14T17:37:55.572Z,95515.47
2022-08-14T17:40:31.356Z,95523.97
2022-08-14T17:43:02.544Z,95516.41
2022-08-14T17:45:47.010Z,95522.81
2022-08-14T17:49:10.016Z,95518.03
2022-08-14T17:51:23.392Z,95516.50
2022-08-14T17:54:02.617Z,95514.88
2022-08-14T17:56:34.437Z,95520.06
2022-08-14T17:59:07.548Z,95517.69
2022-08-14T18:01:45.911Z,95515.69
2022-08-14T18:04:27.776Z,95504.06
2022-08-14T18:07:16.469Z,95516.41
2022-08-14T18:09:56.723Z,95513.56
2022-08-14T18:12:37.128Z,95502.69
2022-08-14T18:15:15.950Z,95505.44
2022-08-14T18:17:53.374Z,95512.19
2022-08-14T18:21:41.869Z,95516.19
2022-08-14T18:23:15.404Z,95502.63
2022-08-14T18:25:53.278Z,95512.19
2022-08-14T18:28:51.601Z,95513.75
2022-08-14T18:31:43.612Z,95525.72
2022-08-14T18:34:32.260Z,95527.28
2022-08-14T18:37:17.991Z,95530.81
2022-08-14T18:40:01.939Z,95520.63
2022-08-14T18:42:52.943Z,95525.72
2022-08-14T18:45:28.907Z,95522.13
2022-08-14T18:48:50.599Z,95526.09
2022-08-14T18:51:46.171Z,95532.38
2022-08-14T18:54:33.123Z,95544.25
2022-08-14T18:57:04.116Z,95537.81
2022-08-14T18:59:42.329Z,95541.72
2022-08-14T19:02:43.403Z,95540.41
2022-08-14T19:05:14.306Z,95537.91
2022-08-14T19:07:48.082Z,95539.06
2022-08-14T19:10:32.004Z,95533.41
2022-08-14T19:13:12.990Z,95542.53
2022-08-14T19:15:45.691Z,95550.53
2022-08-14T19:18:28.219Z,95549.63
2022-08-14T19:21:00.536Z,95554.34
2022-08-14T19:23:42.256Z,95552.25
2022-08-14T19:26:36.075Z,95552.25
2022-08-14T19:29:39.873Z,95548.16
2022-08-14T19:32:36.471Z,95551.31
2022-08-14T19:35:16.579Z,95549.63
2022-08-14T19:37:52.748Z,95554.34
2022-08-14T19:40:33.386Z,95552.69
2022-08-14T19:43:06.614Z,95558.25
2022-08-14T19:45:39.115Z,95571.22
2022-08-14T19:48:15.751Z,95565.59
2022-08-14T19:50:47.004Z,95564.75
2022-08-14T19:53:18.304Z,95568.16
2022-08-14T19:55:59.888Z,95571.97
2022-08-14T19:58:54.925Z,95566.59
2022-08-14T20:01:37.642Z,95559.28
2022-08-14T20:04:45.422Z,95559.56
2022-08-14T20:07:01.885Z,95568.63
2022-08-14T20:11:05.840Z,95569.78
2022-08-14T20:12:36.722Z,95564.59
2022-08-14T20:15:21.412Z,95567.25
2022-08-14T20:17:52.692Z,95565.41
2022-08-14T20:20:31.526Z,95562.56
2022-08-14T20:23:11.498Z,95555.75
2022-08-14T20:25:45.275Z,95558.25
2022-08-14T20:28:35.388Z,95558.25
2022-08-14T20:31:17.665Z,95554.03
2022-08-14T20:34:06.940Z,95561.63
2022-08-14T20:36:40.924Z,95552.88
2022-08-14T20:39:15.242Z,95559.50
2022-08-14T20:41:51.078Z,95561.59
2022-08-14T20:44:55.438Z,95554.66
2022-08-14T20:47:25.892Z,95553.59
2022-08-14T20:50:18.671Z,95555.13
2022-08-14T20:52:53.071Z,95555.41
2022-08-14T20:55:29.376Z,95555.78
2022-08-14T20:58:02.740Z,95564.41
2022-08-14T21:00:51.669Z,95558.63
2022-08-14T21:03:31.990Z,95551.81
2022-08-14T21:06:17.220Z,95560.84
2022-08-14T21:08:51.743Z,95557.25
2022-08-14T21:11:23.362Z,95558.34
2022-08-14T21:14:24.994Z,95564.63
2022-08-14T21:16:58.491Z,95560.94
2022-08-14T21:19:30.197Z,95566.81
2022-08-14T21:22:02.379Z,95568.72
2022-08-14T21:24:39.957Z,95571.50
2022-08-14T21:27:21.670Z,95570.06
2022-08-14T21:29:55.592Z,95575.00
2022-08-14T21:32:50.012Z,95571.53
2022-08-14T21:35:22.930Z,95571.69
2022-08-14T21:37:52.762Z,95580.28
2022-08-14T21:40:41.892Z,95574.66
2022-08-14T21:43:18.469Z,95573.69
2022-08-14T21:45:53.154Z,95573.22
2022-08-14T21:48:25.313Z,95563.97
2022-08-14T21:51:52.905Z,95582.06
2022-08-14T21:53:58.895Z,95583.75
2022-08-14T21:56:37.597Z,95574.31
2022-08-14T21:59:09.781Z,95577.47
2022-08-14T22:01:59.639Z,95576.38
2022-08-14T22:04:33.781Z,95569.13
2022-08-14T22:07:07.522Z,95564.84
2022-08-14T22:09:37.181Z,95542.75
2022-08-14T22:12:08.726Z,95561.97
2022-08-14T22:14:43.204Z,95562.47
2022-08-14T22:17:16.498Z,95554.44
2022-08-14T22:19:55.048Z,95552.38
2022-08-14T22:22:27.736Z,95538.31
2022-08-14T22:24:59.675Z,95534.44
2022-08-14T22:27:29.520Z,95541.03
2022-08-14T22:30:00.550Z,95543.22
2022-08-14T22:32:56.078Z,95544.94
2022-08-14T22:35:19.335Z,95536.69
2022-08-14T22:38:34.958Z,95540.84
2022-08-14T22:41:01.916Z,95537.84
2022-08-14T22:43:37.962Z,95544.09
2022-08-14T22:46:15.065Z,95552.28
2022-08-14T22:48:51.004Z,95543.31
2022-08-14T22:51:23.389Z,95544.72
2022-08-14T22:53:55.483Z,95539.69
2022-08-14T22:56:29.213Z,95542.31
2022-08-14T22:59:01.260Z,95519.63
2022-08-14T23:01:55.046Z,95532.41
2022-08-14T23:04:35.692Z,95514.78
2022-08-14T23:07:22.009Z,95522.84
2022-08-14T23:10:31.161Z,95524.03
2022-08-14T23:12:48.974Z,95537.03
2022-08-14T23:15:29.853Z,95544.31
2022-08-14T23:17:59.107Z,95536.38
2022-08-14T23:20:29.685Z,95532.81
2022-08-14T23:22:58.523Z,95541.44
2022-08-14T23:25:44.668Z,95531.53
2022-08-14T23:28:33.519Z,95545.94
2022-08-14T23:31:15.039Z,95545.00
2022-08-14T23:34:06.677Z,95544.06
2022-08-14T23:36:52.705Z,95542.13
2022-08-14T23:39:29.915Z,95546.72
2022-08-14T23:42:04.586Z,95539.81
2022-08-14T23:44:37.285Z,95526.00
2022-08-14T23:47:11.867Z,95539.94
2022-08-14T23:50:00.900Z,95544.19
2022-08-14T23:53:06.331Z,95539.56
2022-08-14T23:55:29.318Z,95537.94
2022-08-14T23:58:00.547Z,95544.47
